sensor_id;sensor_type;location;lat;lon;timestamp;temperature;humidity
4548;DHT22;2286;51.570;7.090;2022-07-23T00:00:10;16.80;99.90
4548;DHT22;2286;51.570;7.090;2022-07-23T00:02:37;16.80;99.90
4548;DHT22;2286;51.570;7.090;2022-07-23T00:05:04;16.90;99.90
4548;DHT22;2286;51.570;7.090;2022-07-23T00:07:31;16.90;99.90
4548;DHT22;2286;51.570;7.090;2022-07-23T00:10:00;16.80;99.90
4548;DHT22;2286;51.570;7.090;2022-07-23T00:12:26;16.70;99.90
4548;DHT22;2286;51.570;7.090;2022-07-23T00:14:53;16.70;99.90
4548;DHT22;2286;51.570;7.090;2022-07-23T00:17:20;16.70;99.90
4548;DHT22;2286;51.570;7.090;2022-07-23T00:19:47;16.80;99.90
4548;DHT22;2286;51.570;7.090;2022-07-23T00:22:14;16.80;99.90
4548;DHT22;2286;51.570;7.090;2022-07-23T00:24:41;16.80;99.90
4548;DHT22;2286;51.570;7.090;2022-07-23T00:27:09;16.80;99.90
4548;DHT22;2286;51.570;7.090;2022-07-23T00:29:36;16.70;99.90
4548;DHT22;2286;51.570;7.090;2022-07-23T00:32:03;16.60;99.90
4548;DHT22;2286;51.570;7.090;2022-07-23T00:34:30;16.60;99.90
4548;DHT22;2286;51.570;7.090;2022-07-23T00:36:57;16.60;99.90
4548;DHT22;2286;51.570;7.090;2022-07-23T00:39:24;16.60;99.90
4548;DHT22;2286;51.570;7.090;2022-07-23T00:41:51;16.50;99.90
4548;DHT22;2286;51.570;7.090;2022-07-23T00:44:21;16.50;99.90
4548;DHT22;2286;51.570;7.090;2022-07-23T00:46:50;16.40;99.90
4548;DHT22;2286;51.570;7.090;2022-07-23T00:49:19;16.40;99.90
4548;DHT22;2286;51.570;7.090;2022-07-23T00:51:47;16.40;99.90
4548;DHT22;2286;51.570;7.090;2022-07-23T00:54:14;16.40;99.90
4548;DHT22;2286;51.570;7.090;2022-07-23T00:56:43;16.30;99.90
4548;DHT22;2286;51.570;7.090;2022-07-23T00:59:10;16.30;99.90
4548;DHT22;2286;51.570;7.090;2022-07-23T01:01:39;16.30;99.90
4548;DHT22;2286;51.570;7.090;2022-07-23T01:04:06;16.30;99.90
4548;DHT22;2286;51.570;7.090;2022-07-23T01:06:35;16.40;99.90
4548;DHT22;2286;51.570;7.090;2022-07-23T01:09:04;16.40;99.90
4548;DHT22;2286;51.570;7.090;2022-07-23T01:11:32;16.30;99.90
4548;DHT22;2286;51.570;7.090;2022-07-23T01:13:59;16.30;99.90
4548;DHT22;2286;51.570;7.090;2022-07-23T01:16:26;16.30;99.90
4548;DHT22;2286;51.570;7.090;2022-07-23T01:18:54;16.20;99.90
4548;DHT22;2286;51.570;7.090;2022-07-23T01:21:21;16.20;99.90
4548;DHT22;2286;51.570;7.090;2022-07-23T01:23:49;16.20;99.90
4548;DHT22;2286;51.570;7.090;2022-07-23T01:26:16;16.20;99.90
4548;DHT22;2286;51.570;7.090;2022-07-23T01:28:44;16.30;99.90
4548;DHT22;2286;51.570;7.090;2022-07-23T01:31:10;16.30;99.90
4548;DHT22;2286;51.570;7.090;2022-07-23T01:33:37;16.40;99.90
4548;DHT22;2286;51.570;7.090;2022-07-23T01:36:05;16.40;99.90
4548;DHT22;2286;51.570;7.090;2022-07-23T01:38:32;16.30;99.90
4548;DHT22;2286;51.570;7.090;2022-07-23T01:41:00;16.40;99.90
4548;DHT22;2286;51.570;7.090;2022-07-23T01:43:27;16.30;99.90
4548;DHT22;2286;51.570;7.090;2022-07-23T01:45:54;16.30;99.90
4548;DHT22;2286;51.570;7.090;2022-07-23T01:48:21;16.30;99.90
4548;DHT22;2286;51.570;7.090;2022-07-23T01:50:48;16.30;99.90
4548;DHT22;2286;51.570;7.090;2022-07-23T01:53:15;16.30;99.90
4548;DHT22;2286;51.570;7.090;2022-07-23T01:55:42;16.30;99.90
4548;DHT22;2286;51.570;7.090;2022-07-23T01:58:10;16.30;99.90
4548;DHT22;2286;51.570;7.090;2022-07-23T02:00:37;16.20;99.90
4548;DHT22;2286;51.570;7.090;2022-07-23T02:03:04;16.20;99.90
4548;DHT22;2286;51.570;7.090;2022-07-23T02:05:31;16.20;99.90
4548;DHT22;2286;51.570;7.090;2022-07-23T02:07:58;16.10;99.90
4548;DHT22;2286;51.570;7.090;2022-07-23T02:10:26;16.10;99.90
4548;DHT22;2286;51.570;7.090;2022-07-23T02:12:53;16.10;99.90
4548;DHT22;2286;51.570;7.090;2022-07-23T02:15:21;16.10;99.90
4548;DHT22;2286;51.570;7.090;2022-07-23T02:17:48;16.10;99.90
4548;DHT22;2286;51.570;7.090;2022-07-23T02:20:15;16.00;99.90
4548;DHT22;2286;51.570;7.090;2022-07-23T02:22:42;16.00;99.90
4548;DHT22;2286;51.570;7.090;2022-07-23T02:25:09;15.90;99.90
4548;DHT22;2286;51.570;7.090;2022-07-23T02:27:36;15.80;99.90
4548;DHT22;2286;51.570;7.090;2022-07-23T02:30:04;15.70;99.90
4548;DHT22;2286;51.570;7.090;2022-07-23T02:32:32;15.70;99.90
4548;DHT22;2286;51.570;7.090;2022-07-23T02:34:59;15.60;99.90
4548;DHT22;2286;51.570;7.090;2022-07-23T02:37:26;15.50;99.90
4548;DHT22;2286;51.570;7.090;2022-07-23T02:39:54;15.40;99.90
4548;DHT22;2286;51.570;7.090;2022-07-23T02:42:21;15.40;99.90
4548;DHT22;2286;51.570;7.090;2022-07-23T02:44:49;15.30;99.90
4548;DHT22;2286;51.570;7.090;2022-07-23T02:47:16;15.20;99.90
4548;DHT22;2286;51.570;7.090;2022-07-23T02:49:44;15.20;99.90
4548;DHT22;2286;51.570;7.090;2022-07-23T02:52:11;15.10;99.90
4548;DHT22;2286;51.570;7.090;2022-07-23T02:54:38;15.10;99.90
4548;DHT22;2286;51.570;7.090;2022-07-23T02:57:05;15.10;99.90
4548;DHT22;2286;51.570;7.090;2022-07-23T02:59:32;15.10;99.90
4548;DHT22;2286;51.570;7.090;2022-07-23T03:01:59;15.10;99.90
4548;DHT22;2286;51.570;7.090;2022-07-23T03:04:26;15.20;99.90
4548;DHT22;2286;51.570;7.090;2022-07-23T03:06:55;15.20;99.90
4548;DHT22;2286;51.570;7.090;2022-07-23T03:09:21;15.20;99.90
4548;DHT22;2286;51.570;7.090;2022-07-23T03:11:48;15.20;99.90
4548;DHT22;2286;51.570;7.090;2022-07-23T03:14:15;15.20;99.90
4548;DHT22;2286;51.570;7.090;2022-07-23T03:16:42;15.10;99.90
4548;DHT22;2286;51.570;7.090;2022-07-23T03:19:09;15.10;99.90
4548;DHT22;2286;51.570;7.090;2022-07-23T03:21:36;15.00;99.90
4548;DHT22;2286;51.570;7.090;2022-07-23T03:24:07;14.90;99.90
4548;DHT22;2286;51.570;7.090;2022-07-23T03:26:35;14.90;99.90
4548;DHT22;2286;51.570;7.090;2022-07-23T03:29:02;14.80;99.90
4548;DHT22;2286;51.570;7.090;2022-07-23T03:31:30;14.80;99.90
4548;DHT22;2286;51.570;7.090;2022-07-23T03:33:57;14.70;99.90
4548;DHT22;2286;51.570;7.090;2022-07-23T03:36:24;14.70;99.90
4548;DHT22;2286;51.570;7.090;2022-07-23T03:38:51;14.60;99.90
4548;DHT22;2286;51.570;7.090;2022-07-23T03:41:20;14.50;99.90
4548;DHT22;2286;51.570;7.090;2022-07-23T03:43:47;14.50;99.90
4548;DHT22;2286;51.570;7.090;2022-07-23T03:46:14;14.50;99.90
4548;DHT22;2286;51.570;7.090;2022-07-23T03:48:41;14.50;99.90
4548;DHT22;2286;51.570;7.090;2022-07-23T03:51:08;14.40;99.90
4548;DHT22;2286;51.570;7.090;2022-07-23T03:53:35;14.40;99.90
4548;DHT22;2286;51.570;7.090;2022-07-23T03:56:02;14.40;99.90
4548;DHT22;2286;51.570;7.090;2022-07-23T03:58:30;14.40;99.90
4548;DHT22;2286;51.570;7.090;2022-07-23T04:00:57;14.30;99.90
4548;DHT22;2286;51.570;7.090;2022-07-23T04:03:24;14.30;99.90
4548;DHT22;2286;51.570;7.090;2022-07-23T04:05:51;14.20;99.90
4548;DHT22;2286;51.570;7.090;2022-07-23T04:08:18;14.20;99.90
4548;DHT22;2286;51.570;7.090;2022-07-23T04:10:45;14.30;99.90
4548;DHT22;2286;51.570;7.090;2022-07-23T04:13:12;14.30;99.90
4548;DHT22;2286;51.570;7.090;2022-07-23T04:15:40;14.20;99.90
4548;DHT22;2286;51.570;7.090;2022-07-23T04:18:07;14.20;99.90
4548;DHT22;2286;51.570;7.090;2022-07-23T04:20:34;14.20;99.90
4548;DHT22;2286;51.570;7.090;2022-07-23T04:23:01;14.20;99.90
4548;DHT22;2286;51.570;7.090;2022-07-23T04:25:27;14.20;99.90
4548;DHT22;2286;51.570;7.090;2022-07-23T04:27:54;14.20;99.90
4548;DHT22;2286;51.570;7.090;2022-07-23T04:30:21;14.30;99.90
4548;DHT22;2286;51.570;7.090;2022-07-23T04:32:50;14.30;99.90
4548;DHT22;2286;51.570;7.090;2022-07-23T04:35:16;14.30;99.90
4548;DHT22;2286;51.570;7.090;2022-07-23T04:37:43;14.30;99.90
4548;DHT22;2286;51.570;7.090;2022-07-23T04:40:11;14.30;99.90
4548;DHT22;2286;51.570;7.090;2022-07-23T04:42:38;14.30;99.90
4548;DHT22;2286;51.570;7.090;2022-07-23T04:45:06;14.40;99.90
4548;DHT22;2286;51.570;7.090;2022-07-23T04:47:34;14.40;99.90
4548;DHT22;2286;51.570;7.090;2022-07-23T04:50:02;14.50;99.90
4548;DHT22;2286;51.570;7.090;2022-07-23T04:52:29;14.50;99.90
4548;DHT22;2286;51.570;7.090;2022-07-23T04:54:56;14.50;99.90
4548;DHT22;2286;51.570;7.090;2022-07-23T04:57:23;14.50;99.90
4548;DHT22;2286;51.570;7.090;2022-07-23T04:59:50;14.60;99.90
4548;DHT22;2286;51.570;7.090;2022-07-23T05:02:17;14.60;99.90
4548;DHT22;2286;51.570;7.090;2022-07-23T05:04:44;14.70;99.90
4548;DHT22;2286;51.570;7.090;2022-07-23T05:07:12;14.70;99.90
4548;DHT22;2286;51.570;7.090;2022-07-23T05:09:39;14.70;99.90
4548;DHT22;2286;51.570;7.090;2022-07-23T05:12:07;14.80;99.90
4548;DHT22;2286;51.570;7.090;2022-07-23T05:14:34;14.80;99.90
4548;DHT22;2286;51.570;7.090;2022-07-23T05:17:01;14.90;99.90
4548;DHT22;2286;51.570;7.090;2022-07-23T05:19:28;14.90;99.90
4548;DHT22;2286;51.570;7.090;2022-07-23T05:21:55;15.00;99.90
4548;DHT22;2286;51.570;7.090;2022-07-23T05:24:23;15.00;99.90
4548;DHT22;2286;51.570;7.090;2022-07-23T05:26:50;15.10;99.90
4548;DHT22;2286;51.570;7.090;2022-07-23T05:29:17;15.20;99.90
4548;DHT22;2286;51.570;7.090;2022-07-23T05:31:44;15.20;99.90
4548;DHT22;2286;51.570;7.090;2022-07-23T05:34:11;15.30;99.90
4548;DHT22;2286;51.570;7.090;2022-07-23T05:36:38;15.30;99.90
4548;DHT22;2286;51.570;7.090;2022-07-23T05:39:05;15.40;99.90
4548;DHT22;2286;51.570;7.090;2022-07-23T05:41:33;15.40;99.90
4548;DHT22;2286;51.570;7.090;2022-07-23T05:44:00;15.50;99.90
4548;DHT22;2286;51.570;7.090;2022-07-23T05:46:27;15.60;99.90
4548;DHT22;2286;51.570;7.090;2022-07-23T05:48:54;15.60;99.90
4548;DHT22;2286;51.570;7.090;2022-07-23T05:51:22;15.70;99.90
4548;DHT22;2286;51.570;7.090;2022-07-23T05:53:49;15.70;99.90
4548;DHT22;2286;51.570;7.090;2022-07-23T05:56:17;15.70;99.90
4548;DHT22;2286;51.570;7.090;2022-07-23T05:58:45;15.90;99.90
4548;DHT22;2286;51.570;7.090;2022-07-23T06:01:12;15.90;99.90
4548;DHT22;2286;51.570;7.090;2022-07-23T06:03:39;15.90;99.90
4548;DHT22;2286;51.570;7.090;2022-07-23T06:06:07;16.00;99.90
4548;DHT22;2286;51.570;7.090;2022-07-23T06:08:34;16.10;99.90
4548;DHT22;2286;51.570;7.090;2022-07-23T06:11:01;16.10;99.90
4548;DHT22;2286;51.570;7.090;2022-07-23T06:13:28;16.10;99.90
4548;DHT22;2286;51.570;7.090;2022-07-23T06:15:56;16.20;99.90
4548;DHT22;2286;51.570;7.090;2022-07-23T06:18:23;16.30;99.90
4548;DHT22;2286;51.570;7.090;2022-07-23T06:20:50;16.30;99.90
4548;DHT22;2286;51.570;7.090;2022-07-23T06:23:17;16.40;99.90
4548;DHT22;2286;51.570;7.090;2022-07-23T06:25:44;16.50;99.90
4548;DHT22;2286;51.570;7.090;2022-07-23T06:28:11;16.50;99.90
4548;DHT22;2286;51.570;7.090;2022-07-23T06:30:38;16.60;99.90
4548;DHT22;2286;51.570;7.090;2022-07-23T06:33:06;16.70;99.90
4548;DHT22;2286;51.570;7.090;2022-07-23T06:35:33;16.70;99.90
4548;DHT22;2286;51.570;7.090;2022-07-23T06:38:00;16.70;99.90
4548;DHT22;2286;51.570;7.090;2022-07-23T06:40:27;16.80;99.90
4548;DHT22;2286;51.570;7.090;2022-07-23T06:42:54;16.80;99.90
4548;DHT22;2286;51.570;7.090;2022-07-23T06:45:21;17.00;99.90
4548;DHT22;2286;51.570;7.090;2022-07-23T06:47:48;17.10;99.90
4548;DHT22;2286;51.570;7.090;2022-07-23T06:50:17;17.20;99.90
4548;DHT22;2286;51.570;7.090;2022-07-23T06:52:44;17.20;99.90
4548;DHT22;2286;51.570;7.090;2022-07-23T06:55:11;17.30;99.90
4548;DHT22;2286;51.570;7.090;2022-07-23T06:57:38;17.40;99.90
4548;DHT22;2286;51.570;7.090;2022-07-23T07:00:06;17.50;99.90
4548;DHT22;2286;51.570;7.090;2022-07-23T07:02:33;17.50;99.90
4548;DHT22;2286;51.570;7.090;2022-07-23T07:05:00;17.50;99.90
4548;DHT22;2286;51.570;7.090;2022-07-23T07:07:28;17.60;99.90
4548;DHT22;2286;51.570;7.090;2022-07-23T07:09:55;17.70;99.90
4548;DHT22;2286;51.570;7.090;2022-07-23T07:12:22;17.70;99.90
4548;DHT22;2286;51.570;7.090;2022-07-23T07:14:49;17.70;99.90
4548;DHT22;2286;51.570;7.090;2022-07-23T07:17:16;17.70;99.90
4548;DHT22;2286;51.570;7.090;2022-07-23T07:19:43;17.90;99.90
4548;DHT22;2286;51.570;7.090;2022-07-23T07:22:10;18.00;99.90
4548;DHT22;2286;51.570;7.090;2022-07-23T07:24:38;18.00;99.90
4548;DHT22;2286;51.570;7.090;2022-07-23T07:27:05;18.10;99.90
4548;DHT22;2286;51.570;7.090;2022-07-23T07:29:32;18.30;99.90
4548;DHT22;2286;51.570;7.090;2022-07-23T07:31:59;18.30;77.90
4548;DHT22;2286;51.570;7.090;2022-07-23T07:34:26;18.40;1.00
4548;DHT22;2286;51.570;7.090;2022-07-23T07:36:53;18.50;1.00
4548;DHT22;2286;51.570;7.090;2022-07-23T07:39:19;18.50;1.00
4548;DHT22;2286;51.570;7.090;2022-07-23T07:41:48;18.60;1.00
4548;DHT22;2286;51.570;7.090;2022-07-23T07:44:15;18.60;1.00
4548;DHT22;2286;51.570;7.090;2022-07-23T07:46:42;18.70;1.00
4548;DHT22;2286;51.570;7.090;2022-07-23T07:49:09;18.90;1.00
4548;DHT22;2286;51.570;7.090;2022-07-23T07:51:36;19.00;99.90
4548;DHT22;2286;51.570;7.090;2022-07-23T07:54:03;19.00;1.00
4548;DHT22;2286;51.570;7.090;2022-07-23T07:56:30;18.80;99.90
4548;DHT22;2286;51.570;7.090;2022-07-23T07:58:58;18.90;99.90
4548;DHT22;2286;51.570;7.090;2022-07-23T08:01:26;19.10;1.00
4548;DHT22;2286;51.570;7.090;2022-07-23T08:03:53;19.30;1.00
4548;DHT22;2286;51.570;7.090;2022-07-23T08:06:20;19.30;1.00
4548;DHT22;2286;51.570;7.090;2022-07-23T08:08:47;19.30;93.10
4548;DHT22;2286;51.570;7.090;2022-07-23T08:11:14;19.20;99.90
4548;DHT22;2286;51.570;7.090;2022-07-23T08:13:41;19.00;99.90
4548;DHT22;2286;51.570;7.090;2022-07-23T08:16:11;19.10;99.90
4548;DHT22;2286;51.570;7.090;2022-07-23T08:18:38;19.10;1.00
4548;DHT22;2286;51.570;7.090;2022-07-23T08:21:05;19.20;1.00
4548;DHT22;2286;51.570;7.090;2022-07-23T08:23:32;19.30;1.00
4548;DHT22;2286;51.570;7.090;2022-07-23T08:26:00;19.40;1.00
4548;DHT22;2286;51.570;7.090;2022-07-23T08:28:27;19.60;99.90
4548;DHT22;2286;51.570;7.090;2022-07-23T08:30:54;19.80;99.90
4548;DHT22;2286;51.570;7.090;2022-07-23T08:33:23;19.90;99.90
4548;DHT22;2286;51.570;7.090;2022-07-23T08:35:50;20.10;1.00
4548;DHT22;2286;51.570;7.090;2022-07-23T08:38:20;20.30;1.00
4548;DHT22;2286;51.570;7.090;2022-07-23T08:40:48;20.50;99.90
4548;DHT22;2286;51.570;7.090;2022-07-23T08:43:17;20.80;99.90
4548;DHT22;2286;51.570;7.090;2022-07-23T08:45:45;21.20;99.90
4548;DHT22;2286;51.570;7.090;2022-07-23T08:48:14;21.30;1.00
4548;DHT22;2286;51.570;7.090;2022-07-23T08:50:44;21.10;1.00
4548;DHT22;2286;51.570;7.090;2022-07-23T08:53:13;21.20;1.00
4548;DHT22;2286;51.570;7.090;2022-07-23T08:55:40;21.40;99.90
4548;DHT22;2286;51.570;7.090;2022-07-23T08:58:09;21.50;1.00
4548;DHT22;2286;51.570;7.090;2022-07-23T09:00:36;21.50;1.00
4548;DHT22;2286;51.570;7.090;2022-07-23T09:03:03;21.40;99.90
4548;DHT22;2286;51.570;7.090;2022-07-23T09:05:30;21.50;1.00
4548;DHT22;2286;51.570;7.090;2022-07-23T09:08:10;21.50;99.90
4548;DHT22;2286;51.570;7.090;2022-07-23T09:10:45;21.60;1.00
4548;DHT22;2286;51.570;7.090;2022-07-23T09:13:40;21.70;99.90
4548;DHT22;2286;51.570;7.090;2022-07-23T09:16:10;21.70;99.90
4548;DHT22;2286;51.570;7.090;2022-07-23T09:18:41;21.70;99.90
4548;DHT22;2286;51.570;7.090;2022-07-23T09:21:15;21.80;99.90
4548;DHT22;2286;51.570;7.090;2022-07-23T09:23:45;21.90;99.90
4548;DHT22;2286;51.570;7.090;2022-07-23T09:29:12;22.30;99.90
4548;DHT22;2286;51.570;7.090;2022-07-23T09:31:47;22.50;99.90
4548;DHT22;2286;51.570;7.090;2022-07-23T09:34:17;22.40;99.90
4548;DHT22;2286;51.570;7.090;2022-07-23T09:36:44;22.40;99.90
4548;DHT22;2286;51.570;7.090;2022-07-23T09:39:15;22.00;99.90
4548;DHT22;2286;51.570;7.090;2022-07-23T09:41:44;22.30;99.90
4548;DHT22;2286;51.570;7.090;2022-07-23T09:44:14;22.50;99.90
4548;DHT22;2286;51.570;7.090;2022-07-23T09:46:42;22.50;99.90
4548;DHT22;2286;51.570;7.090;2022-07-23T09:49:14;22.40;99.90
4548;DHT22;2286;51.570;7.090;2022-07-23T09:51:47;22.30;99.90
4548;DHT22;2286;51.570;7.090;2022-07-23T09:54:26;22.10;99.90
4548;DHT22;2286;51.570;7.090;2022-07-23T09:56:55;22.30;99.90
4548;DHT22;2286;51.570;7.090;2022-07-23T09:59:25;22.30;99.90
4548;DHT22;2286;51.570;7.090;2022-07-23T10:01:53;22.50;99.90
4548;DHT22;2286;51.570;7.090;2022-07-23T10:04:23;22.50;99.90
4548;DHT22;2286;51.570;7.090;2022-07-23T10:06:53;22.70;99.90
4548;DHT22;2286;51.570;7.090;2022-07-23T10:09:26;23.20;99.90
4548;DHT22;2286;51.570;7.090;2022-07-23T10:11:55;23.50;99.90
4548;DHT22;2286;51.570;7.090;2022-07-23T10:14:26;24.00;99.90
4548;DHT22;2286;51.570;7.090;2022-07-23T10:16:53;24.30;99.90
4548;DHT22;2286;51.570;7.090;2022-07-23T10:19:20;24.30;99.90
4548;DHT22;2286;51.570;7.090;2022-07-23T10:21:50;24.00;99.90
4548;DHT22;2286;51.570;7.090;2022-07-23T10:24:30;24.10;99.90
4548;DHT22;2286;51.570;7.090;2022-07-23T10:27:09;25.00;99.90
4548;DHT22;2286;51.570;7.090;2022-07-23T10:29:46;25.70;99.90
4548;DHT22;2286;51.570;7.090;2022-07-23T10:32:20;26.50;99.90
4548;DHT22;2286;51.570;7.090;2022-07-23T10:34:52;26.20;99.90
4548;DHT22;2286;51.570;7.090;2022-07-23T10:37:27;26.80;99.90
4548;DHT22;2286;51.570;7.090;2022-07-23T10:40:13;27.40;99.90
4548;DHT22;2286;51.570;7.090;2022-07-23T10:42:40;28.70;99.90
4548;DHT22;2286;51.570;7.090;2022-07-23T10:45:30;29.70;99.90
4548;DHT22;2286;51.570;7.090;2022-07-23T10:48:12;29.80;99.90
4548;DHT22;2286;51.570;7.090;2022-07-23T10:50:41;30.30;99.90
4548;DHT22;2286;51.570;7.090;2022-07-23T10:53:13;30.60;99.90
4548;DHT22;2286;51.570;7.090;2022-07-23T10:55:48;30.20;99.90
4548;DHT22;2286;51.570;7.090;2022-07-23T11:01:34;29.00;99.90
4548;DHT22;2286;51.570;7.090;2022-07-23T11:04:02;29.40;99.90
4548;DHT22;2286;51.570;7.090;2022-07-23T11:09:38;30.50;99.90
4548;DHT22;2286;51.570;7.090;2022-07-23T11:12:37;31.20;99.90
4548;DHT22;2286;51.570;7.090;2022-07-23T11:15:06;32.10;99.90
4548;DHT22;2286;51.570;7.090;2022-07-23T11:17:36;32.10;99.90
4548;DHT22;2286;51.570;7.090;2022-07-23T11:20:16;32.70;99.90
4548;DHT22;2286;51.570;7.090;2022-07-23T11:22:51;33.80;99.90
4548;DHT22;2286;51.570;7.090;2022-07-23T11:25:34;34.10;99.90
4548;DHT22;2286;51.570;7.090;2022-07-23T11:28:15;33.80;99.90
4548;DHT22;2286;51.570;7.090;2022-07-23T11:30:47;32.50;99.90
4548;DHT22;2286;51.570;7.090;2022-07-23T11:33:19;33.20;99.90
4548;DHT22;2286;51.570;7.090;2022-07-23T11:35:59;34.30;99.90
4548;DHT22;2286;51.570;7.090;2022-07-23T11:38:27;35.40;99.90
4548;DHT22;2286;51.570;7.090;2022-07-23T11:40:56;35.10;99.90
4548;DHT22;2286;51.570;7.090;2022-07-23T11:43:27;34.50;99.90
4548;DHT22;2286;51.570;7.090;2022-07-23T11:45:57;34.60;99.90
4548;DHT22;2286;51.570;7.090;2022-07-23T11:48:25;34.50;99.90
4548;DHT22;2286;51.570;7.090;2022-07-23T11:50:53;34.10;99.90
4548;DHT22;2286;51.570;7.090;2022-07-23T11:53:24;34.90;99.90
4548;DHT22;2286;51.570;7.090;2022-07-23T11:55:52;35.60;99.90
4548;DHT22;2286;51.570;7.090;2022-07-23T11:58:20;35.70;99.90
4548;DHT22;2286;51.570;7.090;2022-07-23T12:00:49;35.80;99.90
4548;DHT22;2286;51.570;7.090;2022-07-23T12:03:16;36.50;99.90
4548;DHT22;2286;51.570;7.090;2022-07-23T12:05:43;36.70;99.90
4548;DHT22;2286;51.570;7.090;2022-07-23T12:08:10;36.80;99.90
4548;DHT22;2286;51.570;7.090;2022-07-23T12:10:38;36.20;99.90
4548;DHT22;2286;51.570;7.090;2022-07-23T12:13:08;37.20;99.90
4548;DHT22;2286;51.570;7.090;2022-07-23T12:15:37;36.80;99.90
4548;DHT22;2286;51.570;7.090;2022-07-23T12:18:08;37.70;99.90
4548;DHT22;2286;51.570;7.090;2022-07-23T12:20:37;38.40;99.90
4548;DHT22;2286;51.570;7.090;2022-07-23T12:23:06;38.20;99.90
4548;DHT22;2286;51.570;7.090;2022-07-23T12:25:35;38.10;99.90
4548;DHT22;2286;51.570;7.090;2022-07-23T12:28:04;38.00;99.90
4548;DHT22;2286;51.570;7.090;2022-07-23T12:30:34;38.50;99.90
4548;DHT22;2286;51.570;7.090;2022-07-23T12:33:01;39.60;99.90
4548;DHT22;2286;51.570;7.090;2022-07-23T12:35:35;39.70;99.90
4548;DHT22;2286;51.570;7.090;2022-07-23T12:38:05;39.90;99.90
4548;DHT22;2286;51.570;7.090;2022-07-23T12:40:34;40.30;99.90
4548;DHT22;2286;51.570;7.090;2022-07-23T12:43:05;39.90;99.90
4548;DHT22;2286;51.570;7.090;2022-07-23T12:45:44;40.10;99.90
4548;DHT22;2286;51.570;7.090;2022-07-23T12:48:27;37.90;99.90
4548;DHT22;2286;51.570;7.090;2022-07-23T12:50:58;37.70;99.90
4548;DHT22;2286;51.570;7.090;2022-07-23T12:53:27;37.50;99.90
4548;DHT22;2286;51.570;7.090;2022-07-23T12:56:03;36.60;99.90
4548;DHT22;2286;51.570;7.090;2022-07-23T12:58:41;37.90;99.90
4548;DHT22;2286;51.570;7.090;2022-07-23T13:01:08;38.30;99.90
4548;DHT22;2286;51.570;7.090;2022-07-23T13:03:38;38.90;99.90
4548;DHT22;2286;51.570;7.090;2022-07-23T13:06:08;39.90;99.90
4548;DHT22;2286;51.570;7.090;2022-07-23T13:08:37;40.40;99.90
4548;DHT22;2286;51.570;7.090;2022-07-23T13:11:06;40.40;99.90
4548;DHT22;2286;51.570;7.090;2022-07-23T13:13:34;39.70;99.90
4548;DHT22;2286;51.570;7.090;2022-07-23T13:16:02;40.70;99.90
4548;DHT22;2286;51.570;7.090;2022-07-23T13:18:30;40.80;99.90
4548;DHT22;2286;51.570;7.090;2022-07-23T13:20:57;41.60;99.90
4548;DHT22;2286;51.570;7.090;2022-07-23T13:23:26;42.00;99.90
4548;DHT22;2286;51.570;7.090;2022-07-23T13:25:53;42.50;99.90
4548;DHT22;2286;51.570;7.090;2022-07-23T13:28:21;42.80;99.90
4548;DHT22;2286;51.570;7.090;2022-07-23T13:30:49;42.70;99.90
4548;DHT22;2286;51.570;7.090;2022-07-23T13:33:18;42.50;99.90
4548;DHT22;2286;51.570;7.090;2022-07-23T13:35:45;42.40;99.90
4548;DHT22;2286;51.570;7.090;2022-07-23T13:38:12;40.80;99.90
4548;DHT22;2286;51.570;7.090;2022-07-23T13:40:43;39.30;99.90
4548;DHT22;2286;51.570;7.090;2022-07-23T13:43:12;38.80;99.90
4548;DHT22;2286;51.570;7.090;2022-07-23T13:45:40;39.60;99.90
4548;DHT22;2286;51.570;7.090;2022-07-23T13:48:08;39.70;99.90
4548;DHT22;2286;51.570;7.090;2022-07-23T13:50:35;40.50;99.90
4548;DHT22;2286;51.570;7.090;2022-07-23T13:53:03;41.30;99.90
4548;DHT22;2286;51.570;7.090;2022-07-23T13:55:31;42.10;99.90
4548;DHT22;2286;51.570;7.090;2022-07-23T13:58:00;42.10;99.90
4548;DHT22;2286;51.570;7.090;2022-07-23T14:00:27;42.30;99.90
4548;DHT22;2286;51.570;7.090;2022-07-23T14:02:56;43.00;99.90
4548;DHT22;2286;51.570;7.090;2022-07-23T14:05:24;42.60;99.90
4548;DHT22;2286;51.570;7.090;2022-07-23T14:07:51;41.70;99.90
4548;DHT22;2286;51.570;7.090;2022-07-23T14:10:19;41.20;99.90
4548;DHT22;2286;51.570;7.090;2022-07-23T14:12:48;40.30;99.90
4548;DHT22;2286;51.570;7.090;2022-07-23T14:15:16;39.30;98.40
4548;DHT22;2286;51.570;7.090;2022-07-23T14:17:45;37.70;93.40
4548;DHT22;2286;51.570;7.090;2022-07-23T14:20:15;36.20;87.90
4548;DHT22;2286;51.570;7.090;2022-07-23T14:22:42;36.80;92.20
4548;DHT22;2286;51.570;7.090;2022-07-23T14:25:10;38.90;98.70
4548;DHT22;2286;51.570;7.090;2022-07-23T14:27:37;40.80;99.90
4548;DHT22;2286;51.570;7.090;2022-07-23T14:30:06;41.90;99.90
4548;DHT22;2286;51.570;7.090;2022-07-23T14:32:35;42.20;99.90
4548;DHT22;2286;51.570;7.090;2022-07-23T14:35:03;41.50;99.90
4548;DHT22;2286;51.570;7.090;2022-07-23T14:37:30;41.90;99.90
4548;DHT22;2286;51.570;7.090;2022-07-23T14:39:57;41.90;99.90
4548;DHT22;2286;51.570;7.090;2022-07-23T14:42:25;41.80;99.90
4548;DHT22;2286;51.570;7.090;2022-07-23T14:44:52;41.50;99.90
4548;DHT22;2286;51.570;7.090;2022-07-23T14:47:19;41.40;99.90
4548;DHT22;2286;51.570;7.090;2022-07-23T14:49:47;42.80;99.90
4548;DHT22;2286;51.570;7.090;2022-07-23T14:52:15;42.80;99.90
4548;DHT22;2286;51.570;7.090;2022-07-23T14:54:42;42.80;99.90
4548;DHT22;2286;51.570;7.090;2022-07-23T14:57:09;41.20;98.70
4548;DHT22;2286;51.570;7.090;2022-07-23T14:59:36;39.30;93.30
4548;DHT22;2286;51.570;7.090;2022-07-23T15:02:03;39.00;94.60
4548;DHT22;2286;51.570;7.090;2022-07-23T15:04:30;40.00;96.60
4548;DHT22;2286;51.570;7.090;2022-07-23T15:06:58;41.30;99.90
4548;DHT22;2286;51.570;7.090;2022-07-23T15:09:25;42.50;99.90
4548;DHT22;2286;51.570;7.090;2022-07-23T15:11:52;43.50;99.90
4548;DHT22;2286;51.570;7.090;2022-07-23T15:14:19;43.60;99.90
4548;DHT22;2286;51.570;7.090;2022-07-23T15:16:46;42.30;99.90
4548;DHT22;2286;51.570;7.090;2022-07-23T15:19:13;41.80;99.90
4548;DHT22;2286;51.570;7.090;2022-07-23T15:21:40;42.70;99.90
4548;DHT22;2286;51.570;7.090;2022-07-23T15:24:08;43.50;99.90
4548;DHT22;2286;51.570;7.090;2022-07-23T15:26:36;44.40;99.90
4548;DHT22;2286;51.570;7.090;2022-07-23T15:29:03;45.70;99.90
4548;DHT22;2286;51.570;7.090;2022-07-23T15:31:32;46.10;99.90
4548;DHT22;2286;51.570;7.090;2022-07-23T15:33:59;44.80;99.90
4548;DHT22;2286;51.570;7.090;2022-07-23T15:36:26;42.80;99.60
4548;DHT22;2286;51.570;7.090;2022-07-23T15:38:53;40.50;92.90
4548;DHT22;2286;51.570;7.090;2022-07-23T15:41:21;38.90;88.20
4548;DHT22;2286;51.570;7.090;2022-07-23T15:43:48;38.00;83.70
4548;DHT22;2286;51.570;7.090;2022-07-23T15:46:16;37.10;80.00
4548;DHT22;2286;51.570;7.090;2022-07-23T15:48:44;36.50;77.30
4548;DHT22;2286;51.570;7.090;2022-07-23T15:51:11;36.70;78.40
4548;DHT22;2286;51.570;7.090;2022-07-23T15:53:38;38.10;89.10
4548;DHT22;2286;51.570;7.090;2022-07-23T15:56:06;38.50;90.30
4548;DHT22;2286;51.570;7.090;2022-07-23T15:58:34;39.10;91.20
4548;DHT22;2286;51.570;7.090;2022-07-23T16:01:02;39.50;92.70
4548;DHT22;2286;51.570;7.090;2022-07-23T16:03:31;38.50;89.40
4548;DHT22;2286;51.570;7.090;2022-07-23T16:05:58;38.00;87.10
4548;DHT22;2286;51.570;7.090;2022-07-23T16:08:25;39.00;92.00
4548;DHT22;2286;51.570;7.090;2022-07-23T16:10:52;39.70;93.90
4548;DHT22;2286;51.570;7.090;2022-07-23T16:13:22;39.90;92.90
4548;DHT22;2286;51.570;7.090;2022-07-23T16:15:51;40.30;94.30
4548;DHT22;2286;51.570;7.090;2022-07-23T16:18:19;40.30;94.20